< < Back
Terminal Aerodrome Forecast


Current Version              Previous Versions:   1  2  3  4  5  6  7  8  9  

Terminal Aerodrome Forecast

698
FTUS42 KGSP 020822 AAA
TAFCLT
TAF AMD
KCLT 020822Z 0208/0306 19004KT P6SM BKN160 OVC250
     FM021200 20006KT P6SM BKN020
     FM021800 22011G18KT P6SM SCT040 BKN200 PROB30 0218/0224 4SM
      -TSRA OVC040CB
     FM030000 20009KT P6SM VCSH OVC120=



Latest METAR

359
SAUS70 KWBC 021000 RRJ
MTRCLT
METAR KCLT 020952Z 18004KT 10SM FEW006 19/17 A3001 RMK AO2 SLP154
T01940172 PNO $


USA.gov is the U.S. government's official web portal to all federal, state and local government web resources and services.